Latest METAR Data

Below are the latest METARs ("Meteorological Services to Airmen Reports"), for RNAS Culdrose and Newquay Airport.

EGDR - RNAS Culdrose
Distance from station: SW 6mi, 9km
Updated: Sat, 31-Jul-2021 9:50pm BST
Mostly Cloudy
Mostly Cloudy
 Wind from WSW
Wind: WSW 7 mph , 11 km/h
Temperature: 59°F , 15°C
Dew Point: 57°F , 14°C
Humidity: 94%
Barometer: 29.88 inHg , 1012 hPa
Clouds: Mostly Cloudy
Visibility: 6 miles , 10 km
Cloud details: Few Clouds 700 ft
Mostly Cloudy 2500 ft
2021/07/31 20:50 EGDR 312050Z AUTO 25006KT 9999 // FEW007/// BKN025/// 15/14 Q1012
EGHQ - Newquay Airport
Distance from station: NE 21mi, 34km
Updated: Sat, 31-Jul-2021 9:50pm BST
Mostly Cloudy
Mostly Cloudy
 Wind from WSW
Wind: WSW 7 mph , 11 km/h
Temperature: 59°F , 15°C
Dew Point: 57°F , 14°C
Humidity: 94%
Barometer: 29.91 inHg , 1013 hPa
Clouds: Mostly Cloudy
Visibility: 6 miles , 10 km
Cloud details: Partly Cloudy 600 ft
Mostly Cloudy 4900 ft
2021/07/31 20:50 EGHQ 312050Z AUTO 25006KT 9999 SCT006/// BKN049/// 15/14 Q1013
 
EGTE - Exeter Airport
Distance from station: ENE 88mi, 141km
Updated: Sat, 31-Jul-2021 4:50pm BST
NOT Current
Partly Cloudy
Partly Cloudy
 Wind from W
Wind: W 10 mph , 17 km/h
Temperature: 66°F , 19°C
Dew Point: 54°F , 12°C
Humidity: 64%
Barometer: 29.85 inHg , 1011 hPa
Clouds: Partly Cloudy
Visibility: 6 miles , 10 km
Cloud details: Few Clouds 3000 ft
Partly Cloudy 4500 ft
2021/07/31 15:50 EGTE 311550Z 27009KT 240V300 9999 FEW030 SCT045 19/12 Q1011
EGHE - St Marys, IOS
Distance from station: W 51mi, 82km
Updated: Sat, 31-Jul-2021 5:50pm BST
NOT Current
Few Clouds
Few Clouds
 Wind from W
Wind: W 13 mph , 20 km/h
Temperature: 63°F , 17°C
Dew Point: 57°F , 14°C
Humidity: 83%
Barometer: 29.88 inHg , 1012 hPa
Clouds: Few Clouds
Visibility: 6 miles , 10 km
Cloud details: Few Clouds 1200 ft
2021/07/31 16:50 EGHE 311650Z 26011KT 9999 FEW012 17/14 Q1012

Metar display script from Saratoga-Weather.org

 

 

UK - WEATHER STATION TOPSITES - UK World Weather Websites

Copyright © Carnkie Weather 2009 - 2021.